createdAt,value
2023-02-19T00:01:55.398Z,90.59
2023-02-19T00:04:23.801Z,90.74
2023-02-19T00:06:51.296Z,91.00
2023-02-19T00:09:20.129Z,91.05
2023-02-19T00:11:48.484Z,91.35
2023-02-19T00:14:18.961Z,91.17
2023-02-19T00:16:46.471Z,91.33
2023-02-19T00:19:17.768Z,91.60
2023-02-19T00:21:45.916Z,91.55
2023-02-19T00:24:14.865Z,91.85
2023-02-19T00:26:43.419Z,91.93
2023-02-19T00:29:17.093Z,92.11
2023-02-19T00:31:45.766Z,92.35
2023-02-19T00:34:13.984Z,92.53
2023-02-19T00:36:42.615Z,92.68
2023-02-19T00:39:14.129Z,93.05
2023-02-19T00:41:41.853Z,93.10
2023-02-19T00:44:11.271Z,93.26
2023-02-19T00:46:42.118Z,93.27
2023-02-19T00:49:16.238Z,93.59
2023-02-19T00:51:44.103Z,93.65
2023-02-19T00:54:12.390Z,93.75
2023-02-19T00:56:39.898Z,94.12
2023-02-19T00:59:07.846Z,94.36
2023-02-19T01:01:35.389Z,94.41
2023-02-19T01:04:06.209Z,94.59
2023-02-19T01:06:35.356Z,94.80
2023-02-19T01:09:04.933Z,94.90
2023-02-19T01:11:32.618Z,95.22
2023-02-19T01:14:01.682Z,94.84
2023-02-19T01:16:30.995Z,95.29
2023-02-19T01:18:59.109Z,95.42
2023-02-19T01:21:28.134Z,95.54
2023-02-19T01:23:56.254Z,95.47
2023-02-19T01:26:28.480Z,95.32
2023-02-19T01:28:57.576Z,95.14
2023-02-19T01:31:25.601Z,95.10
2023-02-19T01:33:56.593Z,95.12
2023-02-19T01:36:24.819Z,95.32
2023-02-19T01:38:52.304Z,95.47
2023-02-19T01:41:23.555Z,95.55
2023-02-19T01:44:09.426Z,95.74
2023-02-19T01:46:41.944Z,96.11
2023-02-19T01:49:20.678Z,96.58
2023-02-19T01:51:54.374Z,96.88
2023-02-19T01:54:25.198Z,96.85
2023-02-19T01:56:53.555Z,96.73
2023-02-19T01:59:21.582Z,96.82
2023-02-19T02:01:49.837Z,96.72
2023-02-19T02:04:18.864Z,97.11
2023-02-19T02:06:54.555Z,97.47
2023-02-19T02:09:45.616Z,97.53
2023-02-19T02:12:13.555Z,97.57
2023-02-19T02:14:45.444Z,97.81
2023-02-19T02:17:31.767Z,97.98
2023-02-19T02:20:22.799Z,98.16
2023-02-19T02:23:05.426Z,98.38
2023-02-19T02:25:52.401Z,98.62
2023-02-19T02:29:05.141Z,98.62
2023-02-19T02:31:42.244Z,98.59
2023-02-19T02:34:27.768Z,98.72
2023-02-19T02:36:57.375Z,98.72
2023-02-19T02:39:28.005Z,98.99
2023-02-19T02:42:17.213Z,99.09
2023-02-19T02:45:04.760Z,99.17
2023-02-19T02:47:42.839Z,99.10
2023-02-19T02:50:18.862Z,99.40
2023-02-19T02:53:08.931Z,99.05
2023-02-19T02:55:42.447Z,98.89
2023-02-19T02:58:12.983Z,99.12
2023-02-19T03:01:06.182Z,99.36
2023-02-19T03:03:36.509Z,99.64
2023-02-19T03:06:06.776Z,99.87
2023-02-19T03:08:39.051Z,100.00
2023-02-19T03:11:29.130Z,100.00
2023-02-19T03:14:31.804Z,100.00
2023-02-19T03:17:25.531Z,100.00
2023-02-19T03:19:58.684Z,100.00
2023-02-19T03:22:31.008Z,100.00
2023-02-19T03:25:23.687Z,100.00
2023-02-19T03:27:52.473Z,100.00
2023-02-19T03:30:23.445Z,100.00
2023-02-19T03:32:58.035Z,100.00
2023-02-19T03:35:35.256Z,100.00
2023-02-19T03:38:13.292Z,100.00
2023-02-19T03:41:05.007Z,100.00
2023-02-19T03:43:47.490Z,100.00
2023-02-19T03:46:25.370Z,100.00
2023-02-19T03:49:01.726Z,100.00
2023-02-19T03:51:42.653Z,100.00
2023-02-19T03:54:17.738Z,100.00
2023-02-19T03:57:03.526Z,100.00
2023-02-19T04:00:24.035Z,100.00
2023-02-19T04:03:20.109Z,100.00
2023-02-19T04:05:53.827Z,100.00
2023-02-19T04:08:24.323Z,99.75
2023-02-19T04:10:55.326Z,99.74
2023-02-19T04:13:30.482Z,99.62
2023-02-19T04:16:03.534Z,99.56
2023-02-19T04:18:38.348Z,99.43
2023-02-19T04:21:08.252Z,99.37
2023-02-19T04:23:40.361Z,99.08
2023-02-19T04:26:09.281Z,98.87
2023-02-19T04:28:38.193Z,98.75
2023-02-19T04:31:06.568Z,98.63
2023-02-19T04:33:34.474Z,98.08
2023-02-19T04:36:02.641Z,98.06
2023-02-19T04:38:30.545Z,97.81
2023-02-19T04:40:58.006Z,97.77
2023-02-19T04:43:25.734Z,97.07
2023-02-19T04:45:53.251Z,97.01
2023-02-19T04:48:20.735Z,96.62
2023-02-19T04:50:48.496Z,95.98
2023-02-19T04:53:16.650Z,95.74
2023-02-19T04:55:44.081Z,95.85
2023-02-19T04:58:11.951Z,94.94
2023-02-19T05:00:39.562Z,94.90
2023-02-19T05:03:07.089Z,94.77
2023-02-19T05:05:35.653Z,94.54
2023-02-19T05:08:03.151Z,93.99
2023-02-19T05:10:30.777Z,94.15
2023-02-19T05:12:58.530Z,93.92
2023-02-19T05:15:25.971Z,93.95
2023-02-19T05:17:53.455Z,93.62
2023-02-19T05:20:22.991Z,93.91
2023-02-19T05:22:51.583Z,93.40
2023-02-19T05:25:19.087Z,93.45
2023-02-19T05:27:46.934Z,93.28
2023-02-19T05:30:16.346Z,93.21
2023-02-19T05:32:43.868Z,93.02
2023-02-19T05:35:11.548Z,92.74
2023-02-19T05:37:39.112Z,92.32
2023-02-19T05:40:06.660Z,92.30
2023-02-19T05:42:36.363Z,91.86
2023-02-19T05:45:04.106Z,91.99
2023-02-19T05:47:31.562Z,91.39
2023-02-19T05:49:59.398Z,91.65
2023-02-19T05:52:27.454Z,91.30
2023-02-19T05:54:54.974Z,91.39
2023-02-19T05:57:22.853Z,91.23
2023-02-19T05:59:50.967Z,91.10
2023-02-19T06:02:18.456Z,90.75
2023-02-19T06:04:46.201Z,90.32
2023-02-19T06:07:13.586Z,90.40
2023-02-19T06:09:42.489Z,90.23
2023-02-19T06:12:10.176Z,90.18
2023-02-19T06:14:37.607Z,89.58
2023-02-19T06:17:05.049Z,88.92
2023-02-19T06:19:32.897Z,88.81
2023-02-19T06:22:00.478Z,88.80
2023-02-19T06:24:27.991Z,88.70
2023-02-19T06:26:55.723Z,87.91
2023-02-19T06:29:24.342Z,87.91
2023-02-19T06:31:51.921Z,87.33
2023-02-19T06:34:19.703Z,87.27
2023-02-19T06:36:49.204Z,86.42
2023-02-19T06:39:16.698Z,86.71
2023-02-19T06:41:44.515Z,86.73
2023-02-19T06:44:11.982Z,85.72
2023-02-19T06:46:39.711Z,85.17
2023-02-19T06:49:07.739Z,85.37
2023-02-19T06:51:35.204Z,85.12
2023-02-19T06:54:02.649Z,85.48
2023-02-19T06:56:37.598Z,85.04
2023-02-19T06:59:08.199Z,84.98
2023-02-19T07:01:37.295Z,84.20
2023-02-19T07:04:05.340Z,84.46
2023-02-19T07:06:33.551Z,83.79
2023-02-19T07:09:02.494Z,83.44
2023-02-19T07:11:32.765Z,82.55
2023-02-19T07:14:02.964Z,81.75
2023-02-19T07:16:31.117Z,81.29
2023-02-19T07:18:59.961Z,80.96
2023-02-19T07:21:29.751Z,79.50
2023-02-19T07:23:58.432Z,77.85
2023-02-19T07:26:25.897Z,78.20
2023-02-19T07:28:53.769Z,77.50
2023-02-19T07:31:23.734Z,77.08
2023-02-19T07:33:51.922Z,76.46
2023-02-19T07:36:20.549Z,75.55
2023-02-19T07:38:55.303Z,75.36
2023-02-19T07:41:24.264Z,74.16
2023-02-19T07:43:53.467Z,73.78
2023-02-19T07:46:21.580Z,73.25
2023-02-19T07:48:49.045Z,72.37
2023-02-19T07:51:19.369Z,72.70
2023-02-19T07:53:50.169Z,71.92
2023-02-19T07:56:20.597Z,71.58
2023-02-19T07:58:48.133Z,71.27
2023-02-19T08:01:18.835Z,71.10
2023-02-19T08:03:48.179Z,70.86
2023-02-19T08:06:16.918Z,70.47
2023-02-19T08:08:44.545Z,70.03
2023-02-19T08:11:30.863Z,69.57
2023-02-19T08:13:58.690Z,69.70
2023-02-19T08:16:42.233Z,69.47
2023-02-19T08:19:10.557Z,69.93
2023-02-19T08:21:38.275Z,69.98
2023-02-19T08:24:06.081Z,69.88
2023-02-19T08:26:34.629Z,70.24
2023-02-19T08:29:04.002Z,70.32
2023-02-19T08:31:32.675Z,70.36
2023-02-19T08:34:00.264Z,69.80
2023-02-19T08:36:28.108Z,70.06
2023-02-19T08:38:55.998Z,69.83
2023-02-19T08:41:23.536Z,70.71
2023-02-19T08:43:51.307Z,71.21
2023-02-19T08:46:18.816Z,71.86
2023-02-19T08:48:46.241Z,72.29
2023-02-19T08:51:14.313Z,72.78
2023-02-19T08:53:42.071Z,72.96
2023-02-19T08:56:12.660Z,72.92
2023-02-19T08:58:40.770Z,73.59
2023-02-19T09:01:14.528Z,73.43
2023-02-19T09:03:42.863Z,73.23
2023-02-19T09:06:16.765Z,72.65
2023-02-19T09:08:44.706Z,72.62
2023-02-19T09:11:12.776Z,72.20
2023-02-19T09:13:40.800Z,73.46
2023-02-19T09:16:09.057Z,72.44
2023-02-19T09:18:36.635Z,72.63
2023-02-19T09:21:05.912Z,73.57
2023-02-19T09:23:35.152Z,73.16
2023-02-19T09:26:06.732Z,71.79
2023-02-19T09:28:34.700Z,71.73
2023-02-19T09:31:06.438Z,72.59
2023-02-19T09:33:34.529Z,72.66
2023-02-19T09:36:02.455Z,70.44
2023-02-19T09:38:31.058Z,70.90
2023-02-19T09:41:05.642Z,72.50
2023-02-19T09:43:33.963Z,72.38
2023-02-19T09:46:06.909Z,71.94
2023-02-19T09:48:34.434Z,72.24
2023-02-19T09:51:03.290Z,73.53
2023-02-19T09:53:41.902Z,73.57
2023-02-19T09:56:10.022Z,75.42
2023-02-19T09:58:48.805Z,76.33
2023-02-19T10:01:18.469Z,76.25
2023-02-19T10:03:48.621Z,77.01
2023-02-19T10:06:23.756Z,77.54
2023-02-19T10:08:55.135Z,77.24
2023-02-19T10:11:25.821Z,77.58
2023-02-19T10:14:09.426Z,77.12
2023-02-19T10:16:42.371Z,77.25
2023-02-19T10:19:14.307Z,76.84
2023-02-19T10:21:42.672Z,76.76
2023-02-19T10:24:19.872Z,75.48
2023-02-19T10:26:47.899Z,76.67
2023-02-19T10:29:15.651Z,76.93
2023-02-19T10:31:43.195Z,76.10
2023-02-19T10:34:20.636Z,75.39
2023-02-19T10:36:53.052Z,74.31
2023-02-19T10:39:21.708Z,75.31
2023-02-19T10:41:51.278Z,73.87
2023-02-19T10:44:24.230Z,72.89
2023-02-19T10:46:55.385Z,72.83
2023-02-19T10:49:33.999Z,72.29
2023-02-19T10:52:25.922Z,72.52
2023-02-19T10:54:57.052Z,71.01
2023-02-19T10:57:33.987Z,71.10
2023-02-19T11:00:22.654Z,69.98
2023-02-19T11:02:50.933Z,69.22
2023-02-19T11:05:20.140Z,69.62
2023-02-19T11:07:47.716Z,69.12
2023-02-19T11:10:33.586Z,68.35
2023-02-19T11:13:03.971Z,67.05
2023-02-19T11:15:33.547Z,66.52
2023-02-19T11:18:13.180Z,67.32
2023-02-19T11:20:58.915Z,65.71
2023-02-19T11:23:38.542Z,66.85
2023-02-19T11:26:15.945Z,66.02
2023-02-19T11:28:44.564Z,66.70
2023-02-19T11:31:36.191Z,66.26
2023-02-19T11:34:29.816Z,66.69
2023-02-19T11:37:17.954Z,66.73
2023-02-19T11:39:48.395Z,66.73
2023-02-19T11:42:31.697Z,66.50
2023-02-19T11:45:23.014Z,66.20
2023-02-19T11:48:12.868Z,66.83
2023-02-19T11:50:53.164Z,66.46
2023-02-19T11:53:37.247Z,66.48
2023-02-19T11:56:16.660Z,66.01
2023-02-19T11:59:05.092Z,66.07
2023-02-19T12:01:59.814Z,66.38
2023-02-19T12:04:55.317Z,66.01
2023-02-19T12:07:41.711Z,66.24
2023-02-19T12:10:28.443Z,64.87
2023-02-19T12:13:20.874Z,64.35
2023-02-19T12:16:15.931Z,64.09
2023-02-19T12:19:33.502Z,62.56
2023-02-19T12:22:01.418Z,62.80
2023-02-19T12:25:03.096Z,61.60
2023-02-19T12:27:42.765Z,62.78
2023-02-19T12:30:35.896Z,61.64
2023-02-19T12:33:29.003Z,60.91
2023-02-19T12:36:05.767Z,60.25
2023-02-19T12:38:44.390Z,60.79
2023-02-19T12:41:17.968Z,60.74
2023-02-19T12:44:18.447Z,60.56
2023-02-19T12:46:52.966Z,60.19
2023-02-19T12:49:37.828Z,60.16
2023-02-19T12:52:18.170Z,60.95
2023-02-19T12:54:50.233Z,60.22
2023-02-19T12:57:34.866Z,59.50
2023-02-19T13:00:30.623Z,59.38
2023-02-19T13:03:05.282Z,59.27
2023-02-19T13:05:35.955Z,59.90
2023-02-19T13:08:10.588Z,60.12
2023-02-19T13:10:51.400Z,60.88
2023-02-19T13:13:35.036Z,61.17
2023-02-19T13:16:10.305Z,61.03
2023-02-19T13:18:49.986Z,61.19
2023-02-19T13:21:40.410Z,60.43
2023-02-19T13:24:14.002Z,59.82
2023-02-19T13:26:49.265Z,59.91
2023-02-19T13:29:51.349Z,59.61
2023-02-19T13:32:48.214Z,58.56
2023-02-19T13:35:22.119Z,58.27
2023-02-19T13:37:51.610Z,58.00
2023-02-19T13:40:30.707Z,57.53
2023-02-19T13:43:05.093Z,58.57
2023-02-19T13:45:43.859Z,58.93
2023-02-19T13:48:26.579Z,58.59
2023-02-19T13:51:26.090Z,58.90
2023-02-19T13:53:57.132Z,58.42
2023-02-19T13:56:36.619Z,59.05
2023-02-19T13:59:10.697Z,59.10
2023-02-19T14:01:53.224Z,58.81
2023-02-19T14:04:39.862Z,58.55
2023-02-19T14:07:07.607Z,58.70
2023-02-19T14:09:41.290Z,58.43
2023-02-19T14:12:15.077Z,58.29
2023-02-19T14:14:51.678Z,58.64
2023-02-19T14:17:27.041Z,58.41
2023-02-19T14:19:56.143Z,57.85
2023-02-19T14:22:45.746Z,57.88
2023-02-19T14:25:29.109Z,57.72
2023-02-19T14:28:24.319Z,57.97
2023-02-19T14:30:55.778Z,57.37
2023-02-19T14:33:30.428Z,57.30
2023-02-19T14:36:16.221Z,57.26
2023-02-19T14:39:04.121Z,58.07
2023-02-19T14:41:37.079Z,58.40
2023-02-19T14:44:24.968Z,58.20
2023-02-19T14:46:59.063Z,58.76
2023-02-19T14:49:45.810Z,58.11
2023-02-19T14:52:28.390Z,57.69
2023-02-19T14:54:58.017Z,57.62
2023-02-19T14:57:47.370Z,57.38
2023-02-19T15:00:26.525Z,57.74
2023-02-19T15:02:57.571Z,57.61
2023-02-19T15:05:28.186Z,57.33
2023-02-19T15:08:02.325Z,57.63
2023-02-19T15:10:32.946Z,58.60
2023-02-19T15:13:06.820Z,58.02
2023-02-19T15:15:40.147Z,58.68
2023-02-19T15:18:08.017Z,58.41
2023-02-19T15:20:37.993Z,57.72
2023-02-19T15:23:07.674Z,58.44
2023-02-19T15:25:39.465Z,57.62
2023-02-19T15:28:42.341Z,57.84
2023-02-19T15:31:15.751Z,57.86
2023-02-19T15:33:51.434Z,58.25
2023-02-19T15:36:29.185Z,58.97
2023-02-19T15:39:02.233Z,59.22
2023-02-19T15:41:35.065Z,59.89
2023-02-19T15:44:20.258Z,60.50
2023-02-19T15:46:48.583Z,60.66
2023-02-19T15:49:48.270Z,61.65
2023-02-19T15:52:43.822Z,61.70
2023-02-19T15:55:38.956Z,62.11
2023-02-19T15:58:19.749Z,63.02
2023-02-19T16:00:50.414Z,63.18
2023-02-19T16:03:21.789Z,63.31
2023-02-19T16:06:14.062Z,63.49
2023-02-19T16:09:02.086Z,63.60
2023-02-19T16:11:47.568Z,63.95
2023-02-19T16:14:18.335Z,63.71
2023-02-19T16:16:50.732Z,62.96
2023-02-19T16:19:24.741Z,63.34
2023-02-19T16:21:53.981Z,62.83
2023-02-19T16:24:35.218Z,63.13
2023-02-19T16:27:04.593Z,63.90
2023-02-19T16:29:34.285Z,64.16
2023-02-19T16:32:05.964Z,64.71
2023-02-19T16:34:48.670Z,64.78
2023-02-19T16:37:37.738Z,65.11
2023-02-19T16:40:08.466Z,65.63
2023-02-19T16:42:59.996Z,66.33
2023-02-19T16:45:27.944Z,66.66
2023-02-19T16:47:55.808Z,67.13
2023-02-19T16:50:25.363Z,67.50
2023-02-19T16:52:56.214Z,67.78
2023-02-19T16:55:24.622Z,67.92
2023-02-19T16:57:52.917Z,68.46
2023-02-19T17:00:24.724Z,68.83
2023-02-19T17:02:57.346Z,68.66
2023-02-19T17:05:27.972Z,68.99
2023-02-19T17:07:55.609Z,69.23
2023-02-19T17:10:25.809Z,69.31
2023-02-19T17:12:55.648Z,69.37
2023-02-19T17:15:23.459Z,69.55
2023-02-19T17:17:52.845Z,69.35
2023-02-19T17:20:27.419Z,69.87
2023-02-19T17:22:55.934Z,70.18
2023-02-19T17:25:23.904Z,70.36
2023-02-19T17:27:51.650Z,71.13
2023-02-19T17:30:31.441Z,71.55
2023-02-19T17:32:59.600Z,72.24
2023-02-19T17:35:27.824Z,72.58
2023-02-19T17:37:56.610Z,72.83
2023-02-19T17:40:33.760Z,73.16
2023-02-19T17:43:02.004Z,73.45
2023-02-19T17:45:30.227Z,73.29
2023-02-19T17:47:58.838Z,73.15
2023-02-19T17:50:30.747Z,73.09
2023-02-19T17:52:58.888Z,73.46
2023-02-19T17:55:26.704Z,73.39
2023-02-19T17:57:54.572Z,73.65
2023-02-19T18:00:25.678Z,73.65
2023-02-19T18:02:53.798Z,74.32
2023-02-19T18:05:22.553Z,74.41
2023-02-19T18:07:50.694Z,73.28
2023-02-19T18:10:20.477Z,73.17
2023-02-19T18:12:48.265Z,73.11
2023-02-19T18:15:19.362Z,73.26
2023-02-19T18:17:47.612Z,73.10
2023-02-19T18:20:22.094Z,72.83
2023-02-19T18:22:50.661Z,72.46
2023-02-19T18:25:19.396Z,71.99
2023-02-19T18:27:47.252Z,71.86
2023-02-19T18:30:18.360Z,72.01
2023-02-19T18:32:50.107Z,72.25
2023-02-19T18:35:20.317Z,71.74
2023-02-19T18:37:52.868Z,72.55
2023-02-19T18:40:25.976Z,72.23
2023-02-19T18:43:00.910Z,72.74
2023-02-19T18:45:29.738Z,71.66
2023-02-19T18:47:57.490Z,71.40
2023-02-19T18:50:25.151Z,71.25
2023-02-19T18:52:53.534Z,71.18
2023-02-19T18:55:21.532Z,71.29
2023-02-19T18:57:49.399Z,71.56
2023-02-19T19:00:22.935Z,72.22
2023-02-19T19:02:51.514Z,72.81
2023-02-19T19:05:23.941Z,73.04
2023-02-19T19:07:56.497Z,73.69
2023-02-19T19:10:26.215Z,73.77
2023-02-19T19:12:54.597Z,74.02
2023-02-19T19:15:22.569Z,74.04
2023-02-19T19:17:51.256Z,74.46
2023-02-19T19:20:20.659Z,73.86
2023-02-19T19:22:52.697Z,74.33
2023-02-19T19:25:21.792Z,74.24
2023-02-19T19:27:52.822Z,73.46
2023-02-19T19:30:22.519Z,73.62
2023-02-19T19:32:52.693Z,72.92
2023-02-19T19:35:21.510Z,73.06
2023-02-19T19:37:49.642Z,72.52
2023-02-19T19:40:18.409Z,71.71
2023-02-19T19:42:46.845Z,71.45
2023-02-19T19:45:15.940Z,71.54
2023-02-19T19:47:43.643Z,71.70
2023-02-19T19:50:13.208Z,72.43
2023-02-19T19:52:40.929Z,72.59
2023-02-19T19:55:09.515Z,72.97
2023-02-19T19:57:40.327Z,73.04
2023-02-19T20:00:12.767Z,73.43
2023-02-19T20:02:42.705Z,72.92
2023-02-19T20:05:10.695Z,73.08
2023-02-19T20:07:38.884Z,73.55
2023-02-19T20:10:08.255Z,74.09
2023-02-19T20:12:36.497Z,73.56
2023-02-19T20:15:04.754Z,73.54
2023-02-19T20:17:32.904Z,73.59
2023-02-19T20:20:00.857Z,73.68
2023-02-19T20:22:28.650Z,73.68
2023-02-19T20:24:56.765Z,74.05
2023-02-19T20:27:24.783Z,73.97
2023-02-19T20:29:53.334Z,73.59
2023-02-19T20:32:21.217Z,73.33
2023-02-19T20:34:49.070Z,73.90
2023-02-19T20:37:16.561Z,73.83
2023-02-19T20:39:45.480Z,73.91
2023-02-19T20:42:16.437Z,73.29
2023-02-19T20:44:45.097Z,73.37
2023-02-19T20:47:12.810Z,73.14
2023-02-19T20:49:46.055Z,73.92
2023-02-19T20:52:16.355Z,73.94
2023-02-19T20:54:44.495Z,74.11
2023-02-19T20:57:14.078Z,74.39
2023-02-19T20:59:44.239Z,74.87
2023-02-19T21:02:24.673Z,74.97
2023-02-19T21:04:53.169Z,75.25
2023-02-19T21:07:20.884Z,76.42
2023-02-19T21:09:48.599Z,76.86
2023-02-19T21:12:17.106Z,77.33
2023-02-19T21:14:45.180Z,77.82
2023-02-19T21:17:13.121Z,78.01
2023-02-19T21:19:41.661Z,78.60
2023-02-19T21:22:09.502Z,79.23
2023-02-19T21:24:37.244Z,79.51
2023-02-19T21:27:05.314Z,79.88
2023-02-19T21:29:33.041Z,80.47
2023-02-19T21:32:01.253Z,81.43
2023-02-19T21:34:29.974Z,81.75
2023-02-19T21:36:57.670Z,82.17
2023-02-19T21:39:26.227Z,82.84
2023-02-19T21:41:54.675Z,82.81
2023-02-19T21:44:23.857Z,82.72
2023-02-19T21:46:51.725Z,82.90
2023-02-19T21:49:19.618Z,83.36
2023-02-19T21:51:49.661Z,83.13
2023-02-19T21:54:26.777Z,83.44
2023-02-19T21:56:54.697Z,83.46
2023-02-19T21:59:23.011Z,83.99
2023-02-19T22:01:51.036Z,83.93
2023-02-19T22:04:21.761Z,83.79
2023-02-19T22:06:49.209Z,84.46
2023-02-19T22:09:16.812Z,84.26
2023-02-19T22:11:45.122Z,84.32
2023-02-19T22:14:12.695Z,84.67
2023-02-19T22:16:40.133Z,84.93
2023-02-19T22:19:14.158Z,85.03
2023-02-19T22:21:44.364Z,85.01
2023-02-19T22:24:20.915Z,85.50
2023-02-19T22:26:50.661Z,85.38
2023-02-19T22:29:19.300Z,85.22
2023-02-19T22:31:47.626Z,85.31
2023-02-19T22:34:16.154Z,85.62
2023-02-19T22:36:44.271Z,85.78
2023-02-19T22:39:24.187Z,85.64
2023-02-19T22:41:53.277Z,85.38
2023-02-19T22:44:20.715Z,85.45
2023-02-19T22:46:56.118Z,85.02
2023-02-19T22:49:24.797Z,84.85
2023-02-19T22:51:57.489Z,84.62
2023-02-19T22:54:27.062Z,84.44
2023-02-19T22:56:54.985Z,83.82
2023-02-19T22:59:23.045Z,82.73
2023-02-19T23:01:51.255Z,81.49
2023-02-19T23:04:21.167Z,81.27
2023-02-19T23:06:49.404Z,81.55
2023-02-19T23:09:23.849Z,82.36
2023-02-19T23:11:52.397Z,83.06
2023-02-19T23:14:22.151Z,83.25
2023-02-19T23:16:49.628Z,82.17
2023-02-19T23:19:17.191Z,81.86
2023-02-19T23:21:45.808Z,82.24
2023-02-19T23:24:14.185Z,82.17
2023-02-19T23:26:46.134Z,82.66
2023-02-19T23:29:19.950Z,83.21
2023-02-19T23:31:47.793Z,83.07
2023-02-19T23:34:16.166Z,83.34
2023-02-19T23:36:45.838Z,83.03
2023-02-19T23:39:16.187Z,82.54
2023-02-19T23:41:52.247Z,82.61
2023-02-19T23:44:21.299Z,82.08
2023-02-19T23:46:49.831Z,82.10
2023-02-19T23:49:18.224Z,82.01
2023-02-19T23:51:46.285Z,81.65
2023-02-19T23:54:14.137Z,81.05
2023-02-19T23:56:41.652Z,80.70
2023-02-19T23:59:09.104Z,80.51
